Terminal Aerodrome Forecast
Issued by NWS

Home | Current Version | Previous Version | Text Only | Print | Product List | Glossary On
Versions: 1 2 3 4 5 6 7 8 9 10 11 12 13 14 15 16 17 18
000
FTAK31 PAJN 201700
TAFAJN
TAF
PAJN 201724Z 2018/2118 08010KT P6SM -SHRA FEW015 OVC045
      TEMPO 2018/2022 10012G17KT 6SM -SHRA
     FM202300 11011KT P6SM -SHRA SCT025 OVC040
     FM210400 10006KT P6SM -SHRA OVC050
     FM210700 VRB05KT P6SM VCSH FEW005 BKN050
     FM211200 VRB05KT 6SM BCFG SCT003 BKN060
     FM211700 08008KT P6SM BKN070=

USA.gov is the U.S. government's official web portal to all federal, state and local government web resources and services.